createdAt,value
2023-07-06T00:00:28.260Z,96093.00
2023-07-06T00:01:27.325Z,96095.00
2023-07-06T00:02:27.340Z,96095.00
2023-07-06T00:03:28.352Z,96095.00
2023-07-06T00:04:28.463Z,96097.00
2023-07-06T00:05:28.424Z,96095.00
2023-07-06T00:06:28.551Z,96093.00
2023-07-06T00:07:28.513Z,96093.00
2023-07-06T00:08:28.538Z,96091.00
2023-07-06T00:09:28.577Z,96093.00
2023-07-06T00:10:27.608Z,96089.00
2023-07-06T00:11:27.589Z,96089.00
2023-07-06T00:12:27.633Z,96088.00
2023-07-06T00:13:27.657Z,96086.00
2023-07-06T00:14:28.681Z,96082.00
2023-07-06T00:15:28.713Z,96080.00
2023-07-06T00:16:28.904Z,96082.00
2023-07-06T00:17:27.827Z,96082.00
2023-07-06T00:18:28.803Z,96084.00
2023-07-06T00:19:27.845Z,96082.00
2023-07-06T00:20:28.871Z,96086.00
2023-07-06T00:21:27.919Z,96086.00
2023-07-06T00:22:28.953Z,96084.00
2023-07-06T00:23:28.026Z,96082.00
2023-07-06T00:24:29.025Z,96088.00
2023-07-06T00:25:29.038Z,96086.00
2023-07-06T00:26:28.085Z,96088.00
2023-07-06T00:27:28.103Z,96084.00
2023-07-06T00:28:28.122Z,96080.00
2023-07-06T00:29:28.157Z,96080.00
2023-07-06T00:30:29.165Z,96078.00
2023-07-06T00:31:28.228Z,96078.00
2023-07-06T00:32:29.600Z,96078.00
2023-07-06T00:33:28.257Z,96082.00
2023-07-06T00:34:29.312Z,96086.00
2023-07-06T00:35:29.340Z,96086.00
2023-07-06T00:36:29.405Z,96088.00
2023-07-06T00:37:29.449Z,96088.00
2023-07-06T00:38:28.504Z,96088.00
2023-07-06T00:39:28.563Z,96088.00
2023-07-06T00:40:29.565Z,96089.00
2023-07-06T00:41:29.613Z,96089.00
2023-07-06T00:42:28.630Z,96089.00
2023-07-06T00:43:29.710Z,96091.00
2023-07-06T00:44:29.725Z,96088.00
2023-07-06T00:45:28.830Z,96091.00
2023-07-06T00:46:28.889Z,96088.00
2023-07-06T00:47:28.906Z,96089.00
2023-07-06T00:48:28.938Z,96091.00
2023-07-06T00:49:29.895Z,96089.00
2023-07-06T00:50:28.962Z,96093.00
2023-07-06T00:51:28.982Z,96091.00
2023-07-06T00:52:30.004Z,96093.00
2023-07-06T00:53:29.001Z,96093.00
2023-07-06T00:54:29.010Z,96091.00
2023-07-06T00:55:29.105Z,96091.00
2023-07-06T00:56:29.083Z,96093.00
2023-07-06T00:57:29.091Z,96091.00
2023-07-06T00:58:29.145Z,96089.00
2023-07-06T00:59:29.157Z,96089.00
2023-07-06T01:00:29.204Z,96086.00
2023-07-06T01:01:29.264Z,96084.00
2023-07-06T01:02:29.325Z,96082.00
2023-07-06T01:03:30.371Z,96088.00
2023-07-06T01:04:30.335Z,96086.00
2023-07-06T01:05:29.357Z,96086.00
2023-07-06T01:06:30.383Z,96089.00
2023-07-06T01:07:29.388Z,96086.00
2023-07-06T01:08:29.405Z,96086.00
2023-07-06T01:09:30.423Z,96084.00
2023-07-06T01:10:29.454Z,96086.00
2023-07-06T01:11:30.499Z,96088.00
2023-07-06T01:12:29.495Z,96089.00
2023-07-06T01:13:30.621Z,96089.00
2023-07-06T01:14:29.578Z,96089.00
2023-07-06T01:15:30.622Z,96091.00
2023-07-06T01:16:30.693Z,96089.00
2023-07-06T01:17:30.713Z,96086.00
2023-07-06T01:18:30.678Z,96086.00
2023-07-06T01:19:30.720Z,96088.00
2023-07-06T01:20:30.732Z,96088.00
2023-07-06T01:21:30.819Z,96089.00
2023-07-06T01:22:30.749Z,96091.00
2023-07-06T01:23:30.794Z,96088.00
2023-07-06T01:24:29.776Z,96088.00
2023-07-06T01:25:30.794Z,96086.00
2023-07-06T01:26:30.814Z,96084.00
2023-07-06T01:27:29.830Z,96086.00
2023-07-06T01:28:30.845Z,96088.00
2023-07-06T01:29:29.888Z,96088.00
2023-07-06T01:30:30.847Z,96091.00
2023-07-06T01:31:29.930Z,96091.00
2023-07-06T01:32:30.902Z,96091.00
2023-07-06T01:33:29.898Z,96091.00
2023-07-06T01:34:30.898Z,96093.00
2023-07-06T01:35:29.917Z,96091.00
2023-07-06T01:36:30.948Z,96091.00
2023-07-06T01:37:30.955Z,96089.00
2023-07-06T01:38:31.260Z,96091.00
2023-07-06T01:39:30.133Z,96091.00
2023-07-06T01:40:31.414Z,96089.00
2023-07-06T01:41:30.290Z,96088.00
2023-07-06T01:42:31.337Z,96089.00
2023-07-06T01:43:30.999Z,96088.00
2023-07-06T01:44:30.947Z,96086.00
2023-07-06T01:45:30.954Z,96086.00
2023-07-06T01:46:30.946Z,96084.00
2023-07-06T01:47:31.015Z,96086.00
2023-07-06T01:48:29.940Z,96089.00
2023-07-06T01:49:30.942Z,96089.00
2023-07-06T01:50:30.942Z,96088.00
2023-07-06T01:51:29.928Z,96088.00
2023-07-06T01:52:29.938Z,96086.00
2023-07-06T01:53:30.956Z,96082.00
2023-07-06T01:54:30.925Z,96082.00
2023-07-06T01:55:30.924Z,96078.00
2023-07-06T01:56:29.926Z,96080.00
2023-07-06T01:57:29.934Z,96080.00
2023-07-06T01:58:29.934Z,96078.00
2023-07-06T01:59:30.927Z,96076.00
2023-07-06T02:00:29.913Z,96076.00
2023-07-06T02:01:29.913Z,96074.00
2023-07-06T02:02:30.948Z,96076.00
2023-07-06T02:03:30.914Z,96076.00
2023-07-06T02:04:30.904Z,96074.00
2023-07-06T02:05:29.916Z,96074.00
2023-07-06T02:06:32.105Z,96076.00
2023-07-06T02:07:30.876Z,96076.00
2023-07-06T02:08:30.891Z,96078.00
2023-07-06T02:09:29.892Z,96080.00
2023-07-06T02:10:30.879Z,96080.00
2023-07-06T02:12:52.932Z,96082.00
2023-07-06T02:14:48.736Z,96074.00
2023-07-06T02:15:48.710Z,96072.00
2023-07-06T02:16:49.731Z,96072.00
2023-07-06T02:17:49.752Z,96070.00
2023-07-06T02:18:49.701Z,96070.00
2023-07-06T02:19:49.689Z,96068.00
2023-07-06T02:20:49.687Z,96068.00
2023-07-06T02:21:49.677Z,96068.00
2023-07-06T02:22:49.665Z,96068.00
2023-07-06T02:23:49.649Z,96068.00
2023-07-06T02:24:48.657Z,96070.00
2023-07-06T02:25:48.630Z,96068.00
2023-07-06T02:26:49.635Z,96072.00
2023-07-06T02:27:48.630Z,96068.00
2023-07-06T02:28:49.627Z,96072.00
2023-07-06T02:29:48.606Z,96070.00
2023-07-06T02:30:48.677Z,96070.00
2023-07-06T02:31:48.603Z,96070.00
2023-07-06T02:32:49.685Z,96072.00
2023-07-06T02:33:49.600Z,96072.00
2023-07-06T02:34:48.583Z,96070.00
2023-07-06T02:35:48.589Z,96074.00
2023-07-06T02:36:48.564Z,96070.00
2023-07-06T02:37:48.559Z,96070.00
2023-07-06T02:38:49.562Z,96070.00
2023-07-06T02:39:48.542Z,96064.00
2023-07-06T02:40:48.538Z,96068.00
2023-07-06T02:41:49.544Z,96062.00
2023-07-06T02:42:49.615Z,96068.00
2023-07-06T02:43:49.520Z,96066.00
2023-07-06T02:44:48.510Z,96062.00
2023-07-06T02:45:48.521Z,96060.00
2023-07-06T02:46:49.644Z,96058.00
2023-07-06T02:47:48.506Z,96058.00
2023-07-06T02:48:49.500Z,96052.00
2023-07-06T02:49:49.484Z,96052.00
2023-07-06T02:50:48.467Z,96050.00
2023-07-06T02:51:48.472Z,96046.00
2023-07-06T02:52:49.456Z,96046.00
2023-07-06T02:53:49.459Z,96044.00
2023-07-06T02:54:49.455Z,96039.00
2023-07-06T02:55:48.455Z,96037.00
2023-07-06T02:56:48.421Z,96033.00
2023-07-06T02:57:49.421Z,96033.00
2023-07-06T02:58:49.412Z,96033.00
2023-07-06T02:59:49.416Z,96033.00
2023-07-06T03:00:49.404Z,96037.00
2023-07-06T03:01:48.424Z,96033.00
2023-07-06T03:02:48.484Z,96035.00
2023-07-06T03:03:48.375Z,96037.00
2023-07-06T03:04:49.386Z,96037.00
2023-07-06T03:05:49.405Z,96041.00
2023-07-06T03:06:49.364Z,96042.00
2023-07-06T03:07:48.416Z,96052.00
2023-07-06T03:08:49.343Z,96054.00
2023-07-06T03:09:48.333Z,96054.00
2023-07-06T03:10:48.327Z,96056.00
2023-07-06T03:11:49.664Z,96050.00
2023-07-06T03:12:48.331Z,96048.00
2023-07-06T03:13:48.383Z,96048.00
2023-07-06T03:14:49.297Z,96046.00
2023-07-06T03:15:48.299Z,96046.00
2023-07-06T03:16:49.308Z,96046.00
2023-07-06T03:17:48.334Z,96044.00
2023-07-06T03:18:49.330Z,96044.00
2023-07-06T03:19:49.288Z,96048.00
2023-07-06T03:20:49.271Z,96041.00
2023-07-06T03:21:49.265Z,96041.00
2023-07-06T03:22:49.246Z,96042.00
2023-07-06T03:23:48.261Z,96041.00
2023-07-06T03:24:49.275Z,96044.00
2023-07-06T03:25:49.244Z,96046.00
2023-07-06T03:26:48.300Z,96044.00
2023-07-06T03:27:49.214Z,96046.00
2023-07-06T03:28:53.972Z,96044.00
2023-07-06T03:29:49.213Z,96046.00
2023-07-06T03:30:49.193Z,96050.00
2023-07-06T03:31:49.227Z,96046.00
2023-07-06T03:32:49.203Z,96048.00
2023-07-06T03:33:48.178Z,96048.00
2023-07-06T03:34:48.196Z,96050.00
2023-07-06T03:35:48.168Z,96048.00
2023-07-06T03:36:48.160Z,96046.00
2023-07-06T03:37:48.166Z,96050.00
2023-07-06T03:38:49.155Z,96046.00
2023-07-06T03:39:49.146Z,96048.00
2023-07-06T03:40:48.135Z,96046.00
2023-07-06T03:41:49.127Z,96046.00
2023-07-06T03:42:48.119Z,96046.00
2023-07-06T03:43:49.125Z,96046.00
2023-07-06T03:44:48.105Z,96050.00
2023-07-06T03:45:49.146Z,96046.00
2023-07-06T03:46:49.090Z,96046.00
2023-07-06T03:47:48.137Z,96044.00
2023-07-06T03:48:48.072Z,96044.00
2023-07-06T03:49:48.056Z,96046.00
2023-07-06T03:50:49.113Z,96046.00
2023-07-06T03:51:49.080Z,96048.00
2023-07-06T03:52:48.042Z,96046.00
2023-07-06T03:53:49.053Z,96048.00
2023-07-06T03:54:48.047Z,96048.00
2023-07-06T03:55:49.044Z,96048.00
2023-07-06T03:56:48.035Z,96048.00
2023-07-06T03:58:02.704Z,96046.00
2023-07-06T03:58:49.007Z,96046.00
2023-07-06T03:59:48.995Z,96048.00
2023-07-06T04:00:48.004Z,96048.00
2023-07-06T04:01:50.010Z,96048.00
2023-07-06T04:02:49.016Z,96050.00
2023-07-06T04:03:49.031Z,96052.00
2023-07-06T04:04:48.961Z,96056.00
2023-07-06T04:05:47.954Z,96058.00
2023-07-06T04:06:48.969Z,96058.00
2023-07-06T04:07:47.941Z,96058.00
2023-07-06T04:08:47.943Z,96062.00
2023-07-06T04:09:48.930Z,96062.00
2023-07-06T04:10:48.938Z,96066.00
2023-07-06T04:11:47.921Z,96064.00
2023-07-06T04:12:47.900Z,96066.00
2023-07-06T04:13:47.945Z,96066.00
2023-07-06T04:14:48.893Z,96070.00
2023-07-06T04:15:49.014Z,96068.00
2023-07-06T04:16:48.877Z,96068.00
2023-07-06T04:17:48.932Z,96074.00
2023-07-06T04:18:48.897Z,96072.00
2023-07-06T04:19:47.875Z,96074.00
2023-07-06T04:20:48.863Z,96076.00
2023-07-06T04:21:47.862Z,96078.00
2023-07-06T04:22:47.873Z,96074.00
2023-07-06T04:23:48.855Z,96074.00
2023-07-06T04:24:47.825Z,96074.00
2023-07-06T04:25:47.837Z,96072.00
2023-07-06T04:26:47.820Z,96072.00
2023-07-06T04:27:48.827Z,96072.00
2023-07-06T04:28:48.897Z,96070.00
2023-07-06T04:29:48.787Z,96076.00
2023-07-06T04:30:48.788Z,96074.00
2023-07-06T04:31:48.786Z,96072.00
2023-07-06T04:32:48.910Z,96074.00
2023-07-06T04:33:48.783Z,96074.00
2023-07-06T04:34:48.766Z,96070.00
2023-07-06T04:35:48.746Z,96074.00
2023-07-06T04:36:48.749Z,96070.00
2023-07-06T04:37:48.744Z,96074.00
2023-07-06T04:38:48.771Z,96074.00
2023-07-06T04:39:47.745Z,96068.00
2023-07-06T04:40:47.743Z,96068.00
2023-07-06T04:41:47.713Z,96068.00
2023-07-06T04:42:48.704Z,96066.00
2023-07-06T04:43:47.695Z,96064.00
2023-07-06T04:44:47.701Z,96064.00
2023-07-06T04:45:48.714Z,96066.00
2023-07-06T04:46:47.727Z,96066.00
2023-07-06T04:47:47.726Z,96064.00
2023-07-06T04:48:48.669Z,96068.00
2023-07-06T04:49:47.672Z,96064.00
2023-07-06T04:50:48.655Z,96062.00
2023-07-06T04:51:47.654Z,96062.00
2023-07-06T04:52:48.633Z,96062.00
2023-07-06T04:53:48.634Z,96056.00
2023-07-06T04:54:47.651Z,96056.00
2023-07-06T04:55:47.647Z,96054.00
2023-07-06T04:56:48.604Z,96056.00
2023-07-06T04:57:48.619Z,96056.00
2023-07-06T04:58:48.599Z,96060.00
2023-07-06T04:59:48.592Z,96062.00
2023-07-06T05:00:47.680Z,96062.00
2023-07-06T05:01:48.583Z,96066.00
2023-07-06T05:02:47.747Z,96064.00
2023-07-06T05:03:48.602Z,96064.00
2023-07-06T05:04:48.566Z,96064.00
2023-07-06T05:05:48.570Z,96064.00
2023-07-06T05:06:48.551Z,96062.00
2023-07-06T05:07:48.541Z,96064.00
2023-07-06T05:08:48.528Z,96066.00
2023-07-06T05:09:48.540Z,96064.00
2023-07-06T05:10:47.772Z,96066.00
2023-07-06T05:11:47.513Z,96064.00
2023-07-06T05:12:47.512Z,96064.00
2023-07-06T05:13:47.577Z,96062.00
2023-07-06T05:14:47.493Z,96060.00
2023-07-06T05:15:48.503Z,96062.00
2023-07-06T05:16:48.512Z,96062.00
2023-07-06T05:17:48.518Z,96064.00
2023-07-06T05:18:48.470Z,96062.00
2023-07-06T05:19:47.497Z,96064.00
2023-07-06T05:20:48.470Z,96064.00
2023-07-06T05:21:48.438Z,96068.00
2023-07-06T05:22:48.468Z,96066.00
2023-07-06T05:23:47.474Z,96070.00
2023-07-06T05:24:48.432Z,96068.00
2023-07-06T05:25:48.426Z,96070.00
2023-07-06T05:26:48.422Z,96068.00
2023-07-06T05:27:48.383Z,96066.00
2023-07-06T05:28:48.389Z,96066.00
2023-07-06T05:29:47.397Z,96068.00
2023-07-06T05:30:48.413Z,96062.00
2023-07-06T05:31:47.377Z,96064.00
2023-07-06T05:32:48.405Z,96062.00
2023-07-06T05:33:48.404Z,96064.00
2023-07-06T05:34:48.410Z,96066.00
2023-07-06T05:35:48.093Z,96066.00
2023-07-06T05:36:47.404Z,96070.00
2023-07-06T05:37:48.432Z,96066.00
2023-07-06T05:38:48.437Z,96070.00
2023-07-06T05:39:48.436Z,96068.00
2023-07-06T05:40:48.447Z,96072.00
2023-07-06T05:41:47.429Z,96074.00
2023-07-06T05:42:48.472Z,96078.00
2023-07-06T05:43:47.465Z,96082.00
2023-07-06T05:44:48.434Z,96082.00
2023-07-06T05:45:47.457Z,96084.00
2023-07-06T05:46:48.616Z,96082.00
2023-07-06T05:47:47.477Z,96080.00
2023-07-06T05:48:48.427Z,96082.00
2023-07-06T05:49:48.443Z,96078.00
2023-07-06T05:50:48.436Z,96078.00
2023-07-06T05:51:48.428Z,96076.00
2023-07-06T05:52:48.429Z,96076.00
2023-07-06T05:53:47.427Z,96078.00
2023-07-06T05:54:47.416Z,96076.00
2023-07-06T05:55:47.413Z,96078.00
2023-07-06T05:56:47.421Z,96078.00
2023-07-06T05:57:48.434Z,96078.00
2023-07-06T05:58:47.428Z,96082.00
2023-07-06T05:59:48.418Z,96080.00
2023-07-06T06:00:47.414Z,96080.00
2023-07-06T06:01:48.426Z,96082.00
2023-07-06T06:02:47.492Z,96076.00
2023-07-06T06:03:48.490Z,96078.00
2023-07-06T06:04:48.473Z,96078.00
2023-07-06T06:05:47.473Z,96076.00
2023-07-06T06:06:48.500Z,96076.00
2023-07-06T06:07:48.536Z,96078.00
2023-07-06T06:08:48.595Z,96076.00
2023-07-06T06:09:48.633Z,96074.00
2023-07-06T06:11:47.752Z,96076.00
2023-07-06T06:12:48.824Z,96080.00
2023-07-06T06:13:47.899Z,96080.00
2023-07-06T06:14:48.992Z,96080.00
2023-07-06T06:15:49.029Z,96082.00
2023-07-06T06:16:49.106Z,96088.00
2023-07-06T06:17:49.266Z,96086.00
2023-07-06T06:18:49.202Z,96089.00
2023-07-06T06:19:48.394Z,96088.00
2023-07-06T06:20:48.320Z,96089.00
2023-07-06T06:21:49.386Z,96091.00
2023-07-06T06:22:48.448Z,96093.00
2023-07-06T06:23:49.516Z,96091.00
2023-07-06T06:24:49.579Z,96091.00
2023-07-06T06:25:48.647Z,96093.00
2023-07-06T06:26:48.685Z,96093.00
2023-07-06T06:27:49.766Z,96091.00
2023-07-06T06:28:49.807Z,96089.00
2023-07-06T06:29:49.901Z,96091.00
2023-07-06T06:30:48.969Z,96091.00
2023-07-06T06:31:49.126Z,96093.00
2023-07-06T06:32:50.182Z,96093.00
2023-07-06T06:33:50.110Z,96093.00
2023-07-06T06:34:49.195Z,96093.00
2023-07-06T06:35:49.233Z,96095.00
2023-07-06T06:36:50.288Z,96097.00
2023-07-06T06:37:49.360Z,96099.00
2023-07-06T06:38:50.418Z,96097.00
2023-07-06T06:39:51.784Z,96101.00
2023-07-06T06:40:49.542Z,96101.00
2023-07-06T06:41:50.608Z,96099.00
2023-07-06T06:42:49.719Z,96099.00
2023-07-06T06:43:49.697Z,96099.00
2023-07-06T06:44:49.773Z,96101.00
2023-07-06T06:45:49.863Z,96101.00
2023-07-06T06:46:50.948Z,96097.00
2023-07-06T06:47:49.966Z,96099.00
2023-07-06T06:48:50.980Z,96099.00
2023-07-06T06:49:50.053Z,96093.00
2023-07-06T06:50:50.132Z,96095.00
2023-07-06T06:51:50.191Z,96095.00
2023-07-06T06:52:50.245Z,96095.00
2023-07-06T06:53:51.312Z,96097.00
2023-07-06T06:54:51.373Z,96097.00
2023-07-06T06:55:51.433Z,96099.00
2023-07-06T06:56:51.461Z,96099.00
2023-07-06T06:57:51.527Z,96095.00
2023-07-06T06:58:51.583Z,96101.00
2023-07-06T06:59:51.638Z,96101.00
2023-07-06T07:00:50.703Z,96101.00
2023-07-06T07:01:50.764Z,96101.00
2023-07-06T07:02:50.863Z,96101.00
2023-07-06T07:03:50.874Z,96099.00
2023-07-06T07:04:50.902Z,96103.00
2023-07-06T07:05:50.955Z,96101.00
2023-07-06T07:06:50.990Z,96103.00
2023-07-06T07:07:51.062Z,96103.00
2023-07-06T07:08:52.095Z,96107.00
2023-07-06T07:09:51.119Z,96107.00
2023-07-06T07:10:52.186Z,96105.00
2023-07-06T07:11:51.205Z,96107.00
2023-07-06T07:12:52.266Z,96105.00
2023-07-06T07:13:51.366Z,96103.00
2023-07-06T07:14:52.354Z,96105.00
2023-07-06T07:15:52.486Z,96103.00
2023-07-06T07:16:52.488Z,96101.00
2023-07-06T07:17:51.610Z,96103.00
2023-07-06T07:18:52.588Z,96103.00
2023-07-06T07:19:51.600Z,96101.00
2023-07-06T07:20:51.653Z,96097.00
2023-07-06T07:21:51.764Z,96095.00
2023-07-06T07:22:51.756Z,96097.00
2023-07-06T07:23:52.809Z,96095.00
2023-07-06T07:24:51.939Z,96097.00
2023-07-06T07:25:52.895Z,96093.00
2023-07-06T07:26:51.945Z,96093.00
2023-07-06T07:27:51.982Z,96089.00
2023-07-06T07:28:52.036Z,96088.00
2023-07-06T07:29:53.100Z,96089.00
2023-07-06T07:30:53.134Z,96089.00
2023-07-06T07:31:52.314Z,96089.00
2023-07-06T07:32:53.285Z,96089.00
2023-07-06T07:33:53.292Z,96089.00
2023-07-06T07:34:53.351Z,96088.00
2023-07-06T07:35:53.460Z,96086.00
2023-07-06T07:36:52.427Z,96084.00
2023-07-06T07:37:53.550Z,96082.00
2023-07-06T07:38:53.503Z,96080.00
2023-07-06T07:39:52.562Z,96078.00
2023-07-06T07:40:52.592Z,96074.00
2023-07-06T07:41:52.641Z,96070.00
2023-07-06T07:42:52.680Z,96070.00
2023-07-06T07:43:53.710Z,96064.00
2023-07-06T07:44:52.765Z,96066.00
2023-07-06T07:45:52.839Z,96062.00
2023-07-06T07:46:53.823Z,96060.00
2023-07-06T07:47:53.906Z,96062.00
2023-07-06T07:48:53.912Z,96062.00
2023-07-06T07:49:52.926Z,96054.00
2023-07-06T07:50:52.992Z,96052.00
2023-07-06T07:51:53.006Z,96052.00
2023-07-06T07:52:54.503Z,96052.00
2023-07-06T07:53:54.140Z,96048.00
2023-07-06T07:54:54.063Z,96048.00
2023-07-06T07:55:54.153Z,96048.00
2023-07-06T07:56:54.105Z,96048.00
2023-07-06T07:57:53.116Z,96052.00
2023-07-06T07:58:53.154Z,96056.00
2023-07-06T07:59:53.172Z,96058.00
2023-07-06T08:00:54.232Z,96060.00
2023-07-06T08:01:54.173Z,96066.00
2023-07-06T08:02:54.227Z,96066.00
2023-07-06T08:03:53.242Z,96066.00
2023-07-06T08:04:53.197Z,96064.00
2023-07-06T08:05:53.361Z,96062.00
2023-07-06T08:06:53.239Z,96060.00
2023-07-06T08:07:54.237Z,96062.00
2023-07-06T08:08:53.263Z,96060.00
2023-07-06T08:09:54.254Z,96064.00
2023-07-06T08:10:54.274Z,96060.00
2023-07-06T08:11:53.285Z,96060.00
2023-07-06T08:12:54.275Z,96062.00
2023-07-06T08:13:54.404Z,96060.00
2023-07-06T08:14:53.289Z,96066.00
2023-07-06T08:15:54.532Z,96066.00
2023-07-06T08:16:54.316Z,96066.00
2023-07-06T08:17:54.368Z,96062.00
2023-07-06T08:18:58.572Z,96066.00
2023-07-06T08:20:13.129Z,96060.00
2023-07-06T08:21:37.172Z,96064.00
2023-07-06T08:22:09.013Z,96066.00
2023-07-06T08:22:54.302Z,96066.00
2023-07-06T08:23:54.263Z,96064.00
2023-07-06T08:24:53.270Z,96060.00
2023-07-06T08:25:54.513Z,96062.00
2023-07-06T08:26:53.258Z,96058.00
2023-07-06T08:27:54.236Z,96058.00
2023-07-06T08:28:55.805Z,96058.00
2023-07-06T08:29:53.280Z,96054.00
2023-07-06T08:30:54.341Z,96054.00
2023-07-06T08:31:54.237Z,96052.00
2023-07-06T08:32:54.243Z,96052.00
2023-07-06T08:33:54.194Z,96052.00
2023-07-06T08:34:53.221Z,96052.00
2023-07-06T08:35:53.186Z,96048.00
2023-07-06T08:36:54.172Z,96048.00
2023-07-06T08:37:53.160Z,96048.00
2023-07-06T08:38:53.183Z,96048.00
2023-07-06T08:39:53.158Z,96042.00
2023-07-06T08:40:54.436Z,96046.00
2023-07-06T08:41:53.167Z,96048.00
2023-07-06T08:42:53.134Z,96044.00
2023-07-06T08:43:54.118Z,96050.00
2023-07-06T08:44:54.122Z,96050.00
2023-07-06T08:45:53.115Z,96048.00
2023-07-06T08:46:53.172Z,96048.00
2023-07-06T08:47:54.141Z,96044.00
2023-07-06T08:48:53.095Z,96042.00
2023-07-06T08:49:53.093Z,96041.00
2023-07-06T08:50:54.065Z,96044.00
2023-07-06T08:51:54.063Z,96042.00
2023-07-06T08:52:54.096Z,96042.00
2023-07-06T08:53:53.151Z,96046.00
2023-07-06T08:54:54.342Z,96044.00
2023-07-06T08:55:54.341Z,96046.00
2023-07-06T08:56:53.280Z,96044.00
2023-07-06T08:57:54.328Z,96042.00
2023-07-06T08:58:53.395Z,96042.00
2023-07-06T08:59:53.496Z,96039.00
2023-07-06T09:00:54.492Z,96042.00
2023-07-06T09:01:54.528Z,96039.00
2023-07-06T09:02:53.623Z,96037.00
2023-07-06T09:03:53.695Z,96037.00
2023-07-06T09:04:54.682Z,96037.00
2023-07-06T09:05:54.920Z,96035.00
2023-07-06T09:06:53.778Z,96035.00
2023-07-06T09:07:53.808Z,96035.00
2023-07-06T09:08:54.883Z,96035.00
2023-07-06T09:09:53.914Z,96037.00
2023-07-06T09:10:58.684Z,96037.00
2023-07-06T09:11:54.958Z,96035.00
2023-07-06T09:12:55.556Z,96037.00
2023-07-06T09:13:55.001Z,96033.00
2023-07-06T09:14:55.032Z,96039.00
2023-07-06T09:15:54.193Z,96037.00
2023-07-06T09:16:53.950Z,96037.00
2023-07-06T09:17:53.993Z,96037.00
2023-07-06T09:18:53.955Z,96035.00
2023-07-06T09:19:53.890Z,96033.00
2023-07-06T09:20:53.883Z,96031.00
2023-07-06T09:21:56.921Z,96033.00
2023-07-06T09:22:53.877Z,96031.00
2023-07-06T09:23:54.878Z,96031.00
2023-07-06T09:24:54.869Z,96025.00
2023-07-06T09:25:55.041Z,96027.00
2023-07-06T09:26:53.896Z,96027.00
2023-07-06T09:27:56.413Z,96029.00
2023-07-06T09:28:54.841Z,96027.00
2023-07-06T09:29:53.827Z,96031.00
2023-07-06T09:30:53.877Z,96029.00
2023-07-06T09:31:53.829Z,96031.00
2023-07-06T09:32:53.848Z,96031.00
2023-07-06T09:33:54.805Z,96029.00
2023-07-06T09:34:53.792Z,96029.00
2023-07-06T09:35:55.279Z,96029.00
2023-07-06T09:36:54.792Z,96027.00
2023-07-06T09:37:54.781Z,96025.00
2023-07-06T09:38:53.785Z,96029.00
2023-07-06T09:39:54.776Z,96031.00
2023-07-06T09:40:54.758Z,96029.00
2023-07-06T09:41:53.765Z,96029.00
2023-07-06T09:42:54.761Z,96029.00
2023-07-06T09:43:54.888Z,96029.00
2023-07-06T09:44:53.823Z,96029.00
2023-07-06T09:45:57.349Z,96025.00
2023-07-06T09:46:54.910Z,96027.00
2023-07-06T09:47:54.922Z,96027.00
2023-07-06T09:48:54.846Z,96023.00
2023-07-06T09:49:53.822Z,96025.00
2023-07-06T09:50:54.839Z,96023.00
2023-07-06T09:51:54.817Z,96023.00
2023-07-06T09:52:54.838Z,96025.00
2023-07-06T09:53:54.890Z,96021.00
2023-07-06T09:54:54.930Z,96021.00
2023-07-06T09:55:55.255Z,96019.00
2023-07-06T09:56:54.014Z,96023.00
2023-07-06T09:57:56.970Z,96021.00
2023-07-06T09:58:54.079Z,96017.00
2023-07-06T09:59:54.031Z,96017.00
2023-07-06T10:00:54.039Z,96015.00
2023-07-06T10:01:55.128Z,96015.00
2023-07-06T10:02:54.084Z,96009.00
2023-07-06T10:03:56.638Z,96009.00
2023-07-06T10:04:55.071Z,96007.00
2023-07-06T10:05:54.086Z,96009.00
2023-07-06T10:06:55.008Z,96005.00
2023-07-06T10:07:53.995Z,96001.00
2023-07-06T10:08:53.991Z,96007.00
2023-07-06T10:09:54.986Z,96007.00
2023-07-06T10:10:54.052Z,96005.00
2023-07-06T10:11:53.998Z,96001.00
2023-07-06T10:12:54.956Z,96003.00
2023-07-06T10:13:55.013Z,96001.00
2023-07-06T10:14:53.952Z,95999.00
2023-07-06T10:15:54.007Z,95999.00
2023-07-06T10:16:53.974Z,95999.00
2023-07-06T10:17:53.987Z,95997.00
2023-07-06T10:18:53.920Z,95997.00
2023-07-06T10:19:53.917Z,95999.00
2023-07-06T10:20:53.902Z,95999.00
2023-07-06T10:21:54.894Z,95997.00
2023-07-06T10:22:54.894Z,95997.00
2023-07-06T10:23:54.882Z,95997.00
2023-07-06T10:24:53.873Z,95995.00
2023-07-06T10:25:53.870Z,95995.00
2023-07-06T10:26:54.865Z,95995.00
2023-07-06T10:27:53.848Z,95995.00
2023-07-06T10:28:53.890Z,95995.00
2023-07-06T10:29:54.862Z,95995.00
2023-07-06T10:30:53.935Z,95994.00
2023-07-06T10:31:54.912Z,95997.00
2023-07-06T10:32:53.946Z,95997.00
2023-07-06T10:33:53.920Z,95997.00
2023-07-06T10:34:54.971Z,95992.00
2023-07-06T10:35:54.033Z,95992.00
2023-07-06T10:36:53.961Z,95992.00
2023-07-06T10:37:53.946Z,95990.00
2023-07-06T10:38:54.973Z,95992.00
2023-07-06T10:39:54.984Z,95990.00
2023-07-06T10:40:53.973Z,95990.00
2023-07-06T10:41:54.977Z,95986.00
2023-07-06T10:42:53.984Z,95986.00
2023-07-06T10:43:53.986Z,95984.00
2023-07-06T10:44:54.966Z,95984.00
2023-07-06T10:45:55.121Z,95980.00
2023-07-06T10:46:55.002Z,95978.00
2023-07-06T10:47:54.006Z,95976.00
2023-07-06T10:48:53.972Z,95976.00
2023-07-06T10:49:53.997Z,95976.00
2023-07-06T10:50:54.981Z,95978.00
2023-07-06T10:51:54.969Z,95976.00
2023-07-06T10:52:53.961Z,95978.00
2023-07-06T10:53:53.956Z,95978.00
2023-07-06T10:54:53.972Z,95976.00
2023-07-06T10:55:55.205Z,95972.00
2023-07-06T10:56:54.966Z,95972.00
2023-07-06T10:57:55.000Z,95972.00
2023-07-06T10:58:55.024Z,95972.00
2023-07-06T10:59:55.047Z,95972.00
2023-07-06T11:00:55.091Z,95966.00
2023-07-06T11:01:54.147Z,95966.00
2023-07-06T11:02:55.166Z,95964.00
2023-07-06T11:03:55.207Z,95966.00
2023-07-06T11:04:55.197Z,95962.00
2023-07-06T11:05:55.513Z,95968.00
2023-07-06T11:06:54.353Z,95964.00
2023-07-06T11:07:54.391Z,95964.00
2023-07-06T11:08:54.424Z,95962.00
2023-07-06T11:09:54.496Z,95960.00
2023-07-06T11:10:55.556Z,95962.00
2023-07-06T11:11:54.639Z,95962.00
2023-07-06T11:12:54.679Z,95962.00
2023-07-06T11:13:55.891Z,95964.00
2023-07-06T11:14:54.775Z,95960.00
2023-07-06T11:15:56.133Z,95962.00
2023-07-06T11:16:54.904Z,95958.00
2023-07-06T11:17:54.958Z,95958.00
2023-07-06T11:18:55.019Z,95956.00
2023-07-06T11:19:56.039Z,95956.00
2023-07-06T11:20:55.103Z,95960.00
2023-07-06T11:21:55.167Z,95958.00
2023-07-06T11:22:56.213Z,95958.00
2023-07-06T11:23:56.250Z,95956.00
2023-07-06T11:24:55.308Z,95954.00
2023-07-06T11:25:55.640Z,95954.00
2023-07-06T11:26:56.397Z,95958.00
2023-07-06T11:27:55.429Z,95956.00
2023-07-06T11:28:56.478Z,95956.00
2023-07-06T11:29:55.551Z,95956.00
2023-07-06T11:30:56.854Z,95956.00
2023-07-06T11:31:55.638Z,95954.00
2023-07-06T11:32:56.684Z,95956.00
2023-07-06T11:33:56.695Z,95954.00
2023-07-06T11:34:55.757Z,95950.00
2023-07-06T11:35:55.790Z,95948.00
2023-07-06T11:36:56.824Z,95948.00
2023-07-06T11:37:59.520Z,95952.00
2023-07-06T11:38:56.839Z,95948.00
2023-07-06T11:39:57.869Z,95948.00
2023-07-06T11:40:57.218Z,95950.00
2023-07-06T11:41:56.812Z,95947.00
2023-07-06T11:42:55.803Z,95947.00
2023-07-06T11:43:55.788Z,95947.00
2023-07-06T11:44:56.800Z,95947.00
2023-07-06T11:45:56.822Z,95948.00
2023-07-06T11:46:56.893Z,95945.00
2023-07-06T11:47:56.906Z,95943.00